Terminal Aerodrome Forecast
Issued by NWS

Home | Current Version | Previous Version | Text Only | Print | Product List | Glossary Off
Versions: 1 2 3 4 5 6 7 8 9 10 11 12 13 14 15 16 17 18 19 20

000
FTUS43 KICT 270757 AAA
TAFRSL
TAF AMD
KRSL 270757Z 2708/2806 34007KT 3SM BR OVC006
      TEMPO 2708/2711 6SM BR OVC008
     FM271400 35006KT 6SM BR BKN008
     FM271500 35007KT P6SM BKN015
     FM271800 01005KT P6SM SCT025=

USA.gov is the U.S. government's official web portal to all federal, state and local government web resources and services.